Wetterdaten: Woche 21.08.17 - 27.08.17 (KW34)
Datum Zeit Temp. A. Pool Temp. Feuchte A. Luftdruck Regen Wind Richtung Sonnenschein ET UV Solar Taupunkt Windchill Windben Empfang
21.08.2017 00:00 13,2 C 21,8 C 89 % 1022,3 hPa 0,0 l/m 6,1 km/h (2 Bft) S-SW 0,00 h 0,000 mm 0,0 UV-I 0 W/m 11,4 C 12,9 C 9,4 km/h (2 Bft) 98,71 %
21.08.2017 01:00 13,0 C 21,7 C 90 % 1022,2 hPa 0,0 l/m 5,4 km/h (1 Bft) S-SW 0,00 h 0,000 mm 0,0 UV-I 0 W/m 11,3 C 12,9 C 8,2 km/h (2 Bft) 98,38 %
21.08.2017 02:00 12,8 C 21,7 C 91 % 1022,1 hPa 0,0 l/m 2,5 km/h (1 Bft) S-SW 0,00 h 0,000 mm 0,0 UV-I 0 W/m 11,4 C 12,8 C 4,5 km/h (1 Bft) 97,86 %
21.08.2017 03:00 12,9 C 21,7 C 91 % 1021,9 hPa 0,0 l/m 5,2 km/h (1 Bft) S-SW 0,00 h 0,000 mm 0,0 UV-I 0 W/m 11,5 C 12,7 C 8,6 km/h (2 Bft) 97,39 %
21.08.2017 04:00 13,2 C 21,3 C 89 % 1021,9 hPa 0,0 l/m 8,1 km/h (2 Bft) SW 0,00 h 0,000 mm 0,0 UV-I 0 W/m 11,4 C 12,2 C 12,8 km/h (3 Bft) 99,71 %
21.08.2017 05:00 13,4 C 21,1 C 88 % 1022,0 hPa 0,0 l/m 8,1 km/h (2 Bft) W-SW 0,00 h 0,025 mm 0,0 UV-I 4 W/m 11,5 C 12,4 C 12,6 km/h (3 Bft) 97,85 %
21.08.2017 06:00 13,2 C 21,1 C 89 % 1022,0 hPa 0,0 l/m 6,9 km/h (2 Bft) W-SW 0,27 h 0,026 mm 0,0 UV-I 28 W/m 11,5 C 12,8 C 10,8 km/h (2 Bft) 97,70 %
21.08.2017 07:00 13,6 C 21,1 C 89 % 1022,3 hPa 0,0 l/m 7,3 km/h (2 Bft) W-SW 0,00 h 0,025 mm 0,0 UV-I 83 W/m 11,8 C 12,9 C 11,2 km/h (2 Bft) 98,13 %
21.08.2017 08:00 14,2 C 21,1 C 86 % 1022,7 hPa 0,0 l/m 6,2 km/h (2 Bft) W-SW 0,00 h 0,051 mm 0,6 UV-I 142 W/m 11,9 C 13,8 C 10,4 km/h (2 Bft) 99,64 %
21.08.2017 09:00 15,0 C 21,1 C 81 % 1022,8 hPa 0,0 l/m 7,6 km/h (2 Bft) W-SW 0,13 h 0,076 mm 1,0 UV-I 264 W/m 11,7 C 14,3 C 12,7 km/h (3 Bft) 97,88 %
21.08.2017 10:00 16,6 C 21,1 C 72 % 1022,8 hPa 0,0 l/m 9,1 km/h (2 Bft) W-SW 0,90 h 0,153 mm 2,1 UV-I 509 W/m 11,5 C 15,3 C 15,4 km/h (3 Bft) 96,54 %
21.08.2017 11:00 17,6 C 21,1 C 63 % 1022,6 hPa 0,0 l/m 8,3 km/h (2 Bft) W 0,90 h 0,304 mm 3,0 UV-I 674 W/m 10,5 C 16,7 C 14,3 km/h (3 Bft) 98,49 %
21.08.2017 12:00 18,3 C 21,5 C 59 % 1022,3 hPa 0,0 l/m 6,7 km/h (2 Bft) W-SW 0,53 h 0,381 mm 3,1 UV-I 562 W/m 10,2 C 17,7 C 12,7 km/h (3 Bft) 98,96 %
21.08.2017 13:00 18,8 C 21,7 C 57 % 1022,0 hPa 0,0 l/m 6,3 km/h (2 Bft) W-SW 0,73 h 0,356 mm 3,5 UV-I 640 W/m 9,9 C 18,4 C 12,6 km/h (3 Bft) 99,05 %
21.08.2017 14:00 19,7 C 21,8 C 50 % 1021,6 hPa 0,0 l/m 9,8 km/h (2 Bft) W 1,00 h 0,406 mm 3,4 UV-I 693 W/m 8,9 C 18,4 C 16,8 km/h (3 Bft) 97,33 %
21.08.2017 15:00 20,0 C 22,2 C 50 % 1021,1 hPa 0,0 l/m 7,0 km/h (2 Bft) W-SW 0,97 h 0,458 mm 2,6 UV-I 608 W/m 9,3 C 19,5 C 13,6 km/h (3 Bft) 96,74 %
21.08.2017 16:00 20,0 C 22,2 C 50 % 1020,7 hPa 0,0 l/m 6,9 km/h (2 Bft) W-SW 1,00 h 0,406 mm 1,7 UV-I 469 W/m 9,2 C 19,6 C 13,3 km/h (3 Bft) 98,30 %
21.08.2017 17:00 19,8 C 22,2 C 49 % 1020,6 hPa 0,0 l/m 5,8 km/h (2 Bft) W-SW 1,00 h 0,330 mm 0,9 UV-I 330 W/m 8,8 C 19,6 C 11,5 km/h (2 Bft) 99,12 %
21.08.2017 18:00 19,1 C 22,2 C 50 % 1020,6 hPa 0,0 l/m 6,0 km/h (2 Bft) W-SW 0,80 h 0,229 mm 0,5 UV-I 157 W/m 8,4 C 18,9 C 10,9 km/h (2 Bft) 98,28 %
21.08.2017 19:00 17,6 C 22,2 C 57 % 1020,9 hPa 0,0 l/m 4,6 km/h (1 Bft) W-SW 0,03 h 0,127 mm 0,0 UV-I 39 W/m 8,9 C 17,6 C 6,9 km/h (2 Bft) 98,59 %
21.08.2017 20:00 15,0 C 22,2 C 71 % 1021,3 hPa 0,0 l/m 2,4 km/h (1 Bft) W-SW 0,00 h 0,051 mm 0,0 UV-I 5 W/m 9,8 C 15,0 C 4,1 km/h (1 Bft) 96,74 %
21.08.2017 21:00 13,2 C 21,8 C 81 % 1021,7 hPa 0,0 l/m 3,2 km/h (1 Bft) S 0,00 h 0,025 mm 0,0 UV-I 0 W/m 10,0 C 13,2 C 5,2 km/h (1 Bft) 99,52 %
21.08.2017 22:00 12,9 C 21,7 C 83 % 1022,1 hPa 0,0 l/m 2,3 km/h (1 Bft) S 0,00 h 0,000 mm 0,0 UV-I 0 W/m 10,1 C 12,9 C 4,3 km/h (1 Bft) 98,21 %
21.08.2017 23:00 12,5 C 21,7 C 85 % 1022,1 hPa 0,0 l/m 4,3 km/h (1 Bft) S-SW 0,00 h 0,000 mm 0,0 UV-I 0 W/m 10,0 C 12,5 C 7,2 km/h (2 Bft) 97,56 %
22.08.2017 00:00 12,1 C 21,4 C 85 % 1022,1 hPa 0,0 l/m 5,2 km/h (1 Bft) S-SW 0,00 h 0,000 mm 0,0 UV-I 0 W/m 9,7 C 12,1 C 8,2 km/h (2 Bft) 98,47 %
22.08.2017 01:00 11,4 C 21,1 C 86 % 1021,8 hPa 0,0 l/m 4,7 km/h (1 Bft) S-SW 0,00 h 0,000 mm 0,0 UV-I 0 W/m 9,2 C 11,4 C 7,4 km/h (2 Bft) 99,19 %
22.08.2017 02:00 10,8 C 21,1 C 88 % 1021,4 hPa 0,0 l/m 4,4 km/h (1 Bft) S-SW 0,00 h 0,000 mm 0,0 UV-I 0 W/m 8,8 C 10,8 C 6,7 km/h (2 Bft) 96,49 %
22.08.2017 03:00 10,6 C 21,1 C 89 % 1021,5 hPa 0,0 l/m 3,6 km/h (1 Bft) S-SW 0,00 h 0,000 mm 0,0 UV-I 0 W/m 8,8 C 10,6 C 5,9 km/h (2 Bft) 99,22 %
22.08.2017 04:00 9,6 C 20,8 C 92 % 1021,6 hPa 0,0 l/m 0,1 km/h (0 Bft) S-SW 0,00 h 0,000 mm 0,0 UV-I 0 W/m 8,3 C 9,6 C 0,8 km/h (0 Bft) 98,61 %
22.08.2017 05:00 8,8 C 20,6 C 93 % 1021,5 hPa 0,0 l/m 0,6 km/h (0 Bft) S-SW 0,00 h 0,000 mm 0,0 UV-I 4 W/m 7,8 C 8,8 C 1,7 km/h (1 Bft) 97,15 %
22.08.2017 06:00 8,4 C 20,6 C 94 % 1021,7 hPa 0,0 l/m 0,0 km/h (0 Bft) N 0,27 h 0,000 mm 0,0 UV-I 30 W/m 7,5 C 8,4 C 0,0 km/h (0 Bft) 98,34 %
22.08.2017 07:00 9,9 C 20,6 C 93 % 1021,8 hPa 0,0 l/m 1,0 km/h (0 Bft) S-SW 1,00 h 0,025 mm 0,0 UV-I 156 W/m 8,8 C 9,9 C 2,2 km/h (1 Bft) 98,75 %
22.08.2017 08:00 12,6 C 20,6 C 86 % 1021,7 hPa 0,0 l/m 3,4 km/h (1 Bft) SW 1,00 h 0,077 mm 0,7 UV-I 306 W/m 10,4 C 12,6 C 5,9 km/h (2 Bft) 96,93 %
22.08.2017 09:00 14,7 C 20,6 C 79 % 1021,5 hPa 0,0 l/m 4,4 km/h (1 Bft) W-SW 1,00 h 0,152 mm 1,6 UV-I 462 W/m 11,0 C 14,6 C 7,7 km/h (2 Bft) 99,17 %
22.08.2017 10:00 16,4 C 20,6 C 73 % 1021,3 hPa 0,0 l/m 3,0 km/h (1 Bft) SW 1,00 h 0,254 mm 2,8 UV-I 613 W/m 11,6 C 16,4 C 6,0 km/h (2 Bft) 98,43 %
22.08.2017 11:00 18,0 C 21,0 C 65 % 1020,9 hPa 0,0 l/m 1,7 km/h (1 Bft) N-NW 1,00 h 0,330 mm 3,8 UV-I 681 W/m 11,4 C 18,0 C 4,4 km/h (1 Bft) 97,54 %
22.08.2017 12:00 19,3 C 21,1 C 56 % 1020,1 hPa 0,0 l/m 3,8 km/h (1 Bft) W 1,00 h 0,381 mm 4,7 UV-I 799 W/m 10,2 C 19,2 C 8,0 km/h (2 Bft) 96,34 %
22.08.2017 13:00 20,2 C 21,5 C 50 % 1019,4 hPa 0,0 l/m 5,9 km/h (2 Bft) SW 1,00 h 0,457 mm 4,6 UV-I 778 W/m 9,4 C 19,9 C 11,9 km/h (2 Bft) 99,55 %
22.08.2017 14:00 20,9 C 21,7 C 49 % 1018,8 hPa 0,0 l/m 4,7 km/h (1 Bft) SW 0,97 h 0,483 mm 4,3 UV-I 762 W/m 9,6 C 20,7 C 10,1 km/h (2 Bft) 98,15 %
22.08.2017 15:00 21,2 C 22,2 C 48 % 1018,3 hPa 0,0 l/m 4,0 km/h (1 Bft) NW 1,00 h 0,483 mm 3,2 UV-I 626 W/m 9,8 C 21,1 C 8,6 km/h (2 Bft) 99,62 %
22.08.2017 16:00 20,7 C 22,2 C 50 % 1017,9 hPa 0,0 l/m 3,6 km/h (1 Bft) NW 1,00 h 0,381 mm 1,8 UV-I 401 W/m 9,9 C 20,7 C 9,0 km/h (2 Bft) 96,56 %
22.08.2017 17:00 20,5 C 22,2 C 50 % 1017,7 hPa 0,0 l/m 2,7 km/h (1 Bft) W 0,93 h 0,254 mm 0,9 UV-I 284 W/m 9,7 C 20,5 C 7,2 km/h (2 Bft) 97,75 %
22.08.2017 18:00 20,0 C 22,2 C 50 % 1017,6 hPa 0,0 l/m 3,8 km/h (1 Bft) W 0,80 h 0,203 mm 0,5 UV-I 155 W/m 9,4 C 20,0 C 8,4 km/h (2 Bft) 98,24 %
22.08.2017 19:00 18,5 C 22,2 C 56 % 1017,7 hPa 0,0 l/m 3,1 km/h (1 Bft) W-SW 0,20 h 0,127 mm 0,0 UV-I 41 W/m 9,6 C 18,5 C 5,8 km/h (2 Bft) 99,09 %
22.08.2017 20:00 15,7 C 22,1 C 74 % 1017,9 hPa 0,0 l/m 1,5 km/h (1 Bft) W-SW 0,00 h 0,051 mm 0,0 UV-I 9 W/m 11,0 C 15,7 C 3,4 km/h (1 Bft) 97,78 %
22.08.2017 21:00 15,4 C 21,7 C 72 % 1018,3 hPa 0,0 l/m 2,7 km/h (1 Bft) S-SW 0,00 h 0,025 mm 0,0 UV-I 0 W/m 10,4 C 15,4 C 5,0 km/h (1 Bft) 97,39 %
22.08.2017 22:00 14,3 C 21,7 C 78 % 1018,2 hPa 0,0 l/m 3,7 km/h (1 Bft) S 0,00 h 0,025 mm 0,0 UV-I 0 W/m 10,5 C 14,3 C 6,2 km/h (2 Bft) 98,43 %
22.08.2017 23:00 13,6 C 21,7 C 80 % 1018,1 hPa 0,0 l/m 4,3 km/h (1 Bft) S-SW 0,00 h 0,026 mm 0,0 UV-I 0 W/m 10,2 C 13,6 C 7,2 km/h (2 Bft) 99,52 %
23.08.2017 00:00 12,9 C 21,5 C 83 % 1018,1 hPa 0,0 l/m 5,0 km/h (1 Bft) S-SW 0,00 h 0,000 mm 0,0 UV-I 0 W/m 10,0 C 12,9 C 7,9 km/h (2 Bft) 93,37 %
23.08.2017 01:00 12,5 C 21,1 C 84 % 1017,9 hPa 0,0 l/m 4,5 km/h (1 Bft) S-SW 0,00 h 0,025 mm 0,0 UV-I 0 W/m 9,9 C 12,5 C 7,2 km/h (2 Bft) 98,71 %
23.08.2017 02:00 11,4 C 21,1 C 88 % 1017,9 hPa 0,0 l/m 1,8 km/h (1 Bft) S-SW 0,00 h 0,000 mm 0,0 UV-I 0 W/m 9,4 C 11,4 C 3,0 km/h (1 Bft) 98,05 %
23.08.2017 03:00 10,5 C 21,1 C 91 % 1018,0 hPa 0,0 l/m 1,0 km/h (0 Bft) S-SW 0,00 h 0,000 mm 0,0 UV-I 0 W/m 9,1 C 10,5 C 2,3 km/h (1 Bft) 98,16 %
23.08.2017 04:00 9,7 C 20,9 C 93 % 1017,9 hPa 0,0 l/m 0,9 km/h (0 Bft) S-SW 0,00 h 0,000 mm 0,0 UV-I 0 W/m 8,5 C 9,7 C 2,7 km/h (1 Bft) 97,45 %
23.08.2017 05:00 9,2 C 20,6 C 94 % 1018,0 hPa 0,0 l/m 0,8 km/h (0 Bft) S-SW 0,00 h 0,000 mm 0,0 UV-I 0 W/m 8,2 C 9,2 C 1,6 km/h (1 Bft) 99,20 %
23.08.2017 06:00 9,0 C 20,6 C 94 % 1018,3 hPa 0,0 l/m 0,8 km/h (0 Bft) S-SW 0,20 h 0,000 mm 0,0 UV-I 26 W/m 8,1 C 9,0 C 1,8 km/h (1 Bft) 97,01 %
23.08.2017 07:00 10,6 C 20,6 C 92 % 1018,5 hPa 0,0 l/m 0,9 km/h (0 Bft) NO 1,00 h 0,026 mm 0,1 UV-I 154 W/m 9,4 C 10,6 C 2,1 km/h (1 Bft) 98,47 %
23.08.2017 08:00 13,1 C 20,6 C 83 % 1018,5 hPa 0,0 l/m 6,3 km/h (2 Bft) NO 1,00 h 0,076 mm 0,8 UV-I 327 W/m 10,2 C 12,8 C 9,8 km/h (2 Bft) 98,66 %
23.08.2017 09:00 14,6 C 20,6 C 78 % 1018,6 hPa 0,0 l/m 5,7 km/h (1 Bft) O-NO 1,00 h 0,178 mm 1,7 UV-I 493 W/m 10,8 C 14,5 C 9,2 km/h (2 Bft) 97,37 %
23.08.2017 10:00 16,7 C 20,6 C 74 % 1018,5 hPa 0,0 l/m 5,8 km/h (1 Bft) O-NO 1,00 h 0,279 mm 3,0 UV-I 632 W/m 12,0 C 16,4 C 10,3 km/h (2 Bft) 97,41 %
23.08.2017 11:00 18,3 C 21,1 C 68 % 1018,2 hPa 0,0 l/m 7,7 km/h (2 Bft) O-NO 1,00 h 0,356 mm 4,2 UV-I 734 W/m 12,2 C 17,6 C 13,0 km/h (3 Bft) 99,50 %
23.08.2017 12:00 19,9 C 21,1 C 64 % 1017,9 hPa 0,0 l/m 5,6 km/h (1 Bft) N-NO 1,00 h 0,432 mm 5,0 UV-I 788 W/m 12,7 C 19,7 C 10,3 km/h (2 Bft) 98,22 %
23.08.2017 13:00 20,8 C 21,6 C 60 % 1017,6 hPa 0,0 l/m 2,6 km/h (1 Bft) N-NW 1,00 h 0,482 mm 5,1 UV-I 784 W/m 12,8 C 20,8 C 6,6 km/h (2 Bft) 99,40 %
23.08.2017 14:00 21,7 C 21,9 C 54 % 1017,2 hPa 0,0 l/m 3,0 km/h (1 Bft) NW 1,00 h 0,483 mm 4,5 UV-I 740 W/m 12,0 C 21,7 C 5,9 km/h (2 Bft) 96,25 %
23.08.2017 15:00 22,4 C 22,2 C 49 % 1016,8 hPa 0,0 l/m 3,0 km/h (1 Bft) W 1,00 h 0,457 mm 3,5 UV-I 647 W/m 11,1 C 22,4 C 6,6 km/h (2 Bft) 97,96 %
23.08.2017 16:00 22,6 C 22,2 C 49 % 1016,5 hPa 0,0 l/m 1,8 km/h (1 Bft) N-NO 1,00 h 0,406 mm 2,2 UV-I 502 W/m 11,3 C 22,6 C 4,6 km/h (1 Bft) 97,97 %
23.08.2017 17:00 22,7 C 22,7 C 47 % 1016,3 hPa 0,0 l/m 2,1 km/h (1 Bft) NO 1,00 h 0,305 mm 1,1 UV-I 341 W/m 10,8 C 22,7 C 4,8 km/h (1 Bft) 98,98 %
23.08.2017 18:00 22,3 C 22,8 C 50 % 1016,1 hPa 0,0 l/m 1,4 km/h (1 Bft) NO 1,00 h 0,229 mm 0,5 UV-I 173 W/m 11,2 C 22,3 C 3,2 km/h (1 Bft) 97,84 %
23.08.2017 19:00 20,1 C 22,4 C 64 % 1016,1 hPa 0,0 l/m 1,0 km/h (0 Bft) NO 0,40 h 0,127 mm 0,0 UV-I 43 W/m 12,9 C 20,1 C 2,0 km/h (1 Bft) 96,93 %
23.08.2017 20:00 16,8 C 22,2 C 74 % 1016,4 hPa 0,0 l/m 0,8 km/h (0 Bft) NO 0,00 h 0,025 mm 0,0 UV-I 6 W/m 12,0 C 16,8 C 1,5 km/h (1 Bft) 97,45 %
23.08.2017 21:00 15,7 C 22,2 C 79 % 1016,6 hPa 0,0 l/m 0,3 km/h (0 Bft) NO 0,00 h 0,000 mm 0,0 UV-I 0 W/m 12,0 C 15,7 C 1,2 km/h (1 Bft) 99,02 %
23.08.2017 22:00 14,9 C 22,2 C 81 % 1016,7 hPa 0,0 l/m 1,7 km/h (1 Bft) NO 0,00 h 0,000 mm 0,0 UV-I 0 W/m 11,6 C 14,9 C 3,1 km/h (1 Bft) 97,64 %
23.08.2017 23:00 14,5 C 22,1 C 84 % 1016,8 hPa 0,0 l/m 3,9 km/h (1 Bft) S-SW 0,00 h 0,000 mm 0,0 UV-I 0 W/m 11,8 C 14,5 C 5,4 km/h (1 Bft) 98,08 %
24.08.2017 00:00 13,7 C 21,7 C 87 % 1016,9 hPa 0,0 l/m 0,8 km/h (0 Bft) S-SW 0,00 h 0,000 mm 0,0 UV-I 0 W/m 11,7 C 13,7 C 1,5 km/h (1 Bft) 97,61 %
24.08.2017 01:00 12,5 C 21,7 C 91 % 1016,8 hPa 0,0 l/m 0,7 km/h (0 Bft) SO 0,00 h 0,000 mm 0,0 UV-I 0 W/m 11,0 C 12,5 C 1,7 km/h (1 Bft) 99,64 %
24.08.2017 02:00 11,9 C 21,7 C 92 % 1016,8 hPa 0,0 l/m 0,4 km/h (0 Bft) SO 0,00 h 0,000 mm 0,0 UV-I 0 W/m 10,7 C 11,9 C 1,0 km/h (0 Bft) 96,25 %
24.08.2017 03:00 11,4 C 21,7 C 93 % 1016,7 hPa 0,0 l/m 0,7 km/h (0 Bft) SO 0,00 h 0,000 mm 0,0 UV-I 0 W/m 10,4 C 11,4 C 1,5 km/h (1 Bft) 98,89 %
24.08.2017 04:00 11,0 C 21,2 C 94 % 1016,6 hPa 0,0 l/m 0,0 km/h (0 Bft) N 0,00 h 0,000 mm 0,0 UV-I 0 W/m 10,1 C 11,0 C 0,1 km/h (0 Bft) 98,01 %
24.08.2017 05:00 10,8 C 21,1 C 95 % 1016,5 hPa 0,0 l/m 0,3 km/h (0 Bft) SO 0,00 h 0,000 mm 0,0 UV-I 0 W/m 10,0 C 10,8 C 0,9 km/h (0 Bft) 97,91 %
24.08.2017 06:00 10,8 C 21,1 C 95 % 1016,5 hPa 0,0 l/m 0,3 km/h (0 Bft) SO 0,43 h 0,000 mm 0,0 UV-I 27 W/m 10,0 C 10,8 C 0,7 km/h (0 Bft) 97,54 %
24.08.2017 07:00 12,1 C 21,1 C 95 % 1016,8 hPa 0,0 l/m 1,6 km/h (1 Bft) O-NO 0,97 h 0,025 mm 0,0 UV-I 140 W/m 11,3 C 12,1 C 2,7 km/h (1 Bft) 99,34 %
24.08.2017 08:00 14,6 C 21,1 C 89 % 1016,9 hPa 0,0 l/m 3,2 km/h (1 Bft) O-NO 1,00 h 0,077 mm 0,8 UV-I 311 W/m 12,7 C 14,6 C 5,3 km/h (1 Bft) 97,06 %
24.08.2017 09:00 16,8 C 21,1 C 82 % 1017,0 hPa 0,0 l/m 2,1 km/h (1 Bft) NO 1,00 h 0,177 mm 1,8 UV-I 469 W/m 13,7 C 16,8 C 4,9 km/h (1 Bft) 98,32 %
24.08.2017 10:00 18,8 C 21,1 C 75 % 1017,0 hPa 0,0 l/m 3,8 km/h (1 Bft) O-NO 1,00 h 0,254 mm 2,8 UV-I 561 W/m 14,4 C 18,8 C 6,8 km/h (2 Bft) 98,02 %
24.08.2017 11:00 20,6 C 21,6 C 69 % 1017,0 hPa 0,0 l/m 2,7 km/h (1 Bft) O-NO 1,00 h 0,331 mm 4,1 UV-I 701 W/m 14,8 C 20,6 C 5,9 km/h (2 Bft) 99,69 %
24.08.2017 12:00 22,4 C 21,8 C 65 % 1016,8 hPa 0,0 l/m 3,3 km/h (1 Bft) NO 0,87 h 0,431 mm 4,5 UV-I 677 W/m 15,5 C 22,4 C 6,4 km/h (2 Bft) 97,21 %
24.08.2017 13:00 24,1 C 22,2 C 64 % 1016,4 hPa 0,0 l/m 3,3 km/h (1 Bft) NO 1,00 h 0,407 mm 4,5 UV-I 713 W/m 16,8 C 24,1 C 6,5 km/h (2 Bft) 98,13 %
24.08.2017 14:00 25,5 C 22,4 C 62 % 1016,0 hPa 0,0 l/m 4,0 km/h (1 Bft) N-NO 1,00 h 0,457 mm 4,0 UV-I 703 W/m 17,6 C 25,4 C 8,1 km/h (2 Bft) 98,25 %
24.08.2017 15:00 26,3 C 22,8 C 61 % 1015,7 hPa 0,0 l/m 4,3 km/h (1 Bft) N-NO 1,00 h 0,457 mm 3,1 UV-I 608 W/m 18,1 C 26,3 C 8,9 km/h (2 Bft) 99,21 %
24.08.2017 16:00 26,6 C 22,9 C 58 % 1015,5 hPa 0,0 l/m 2,9 km/h (1 Bft) NO 1,00 h 0,407 mm 1,9 UV-I 454 W/m 17,7 C 26,6 C 6,1 km/h (2 Bft) 96,60 %
24.08.2017 17:00 26,9 C 23,3 C 58 % 1015,1 hPa 0,0 l/m 1,6 km/h (1 Bft) NO 1,00 h 0,304 mm 1,0 UV-I 310 W/m 17,9 C 26,9 C 3,6 km/h (1 Bft) 98,96 %
24.08.2017 18:00 26,8 C 23,3 C 60 % 1015,0 hPa 0,0 l/m 2,2 km/h (1 Bft) O 1,00 h 0,204 mm 0,5 UV-I 164 W/m 18,2 C 26,8 C 4,1 km/h (1 Bft) 98,75 %
24.08.2017 19:00 24,3 C 23,3 C 72 % 1014,9 hPa 0,0 l/m 2,7 km/h (1 Bft) O 0,27 h 0,127 mm 0,0 UV-I 33 W/m 18,9 C 24,3 C 4,5 km/h (1 Bft) 96,60 %
24.08.2017 20:00 21,5 C 23,3 C 81 % 1014,9 hPa 0,0 l/m 1,2 km/h (1 Bft) O 0,00 h 0,025 mm 0,0 UV-I 5 W/m 18,1 C 21,5 C 2,4 km/h (1 Bft) 98,23 %
24.08.2017 21:00 20,5 C 22,8 C 85 % 1015,3 hPa 0,0 l/m 0,9 km/h (0 Bft) O 0,00 h 0,000 mm 0,0 UV-I 0 W/m 17,9 C 20,5 C 1,8 km/h (1 Bft) 97,81 %
24.08.2017 22:00 20,0 C 22,8 C 87 % 1016,3 hPa 0,0 l/m 3,2 km/h (1 Bft) S-SW 0,00 h 0,000 mm 0,0 UV-I 0 W/m 17,8 C 20,0 C 5,3 km/h (1 Bft) 99,35 %
24.08.2017 23:00 20,7 C 22,8 C 77 % 1018,2 hPa 0,0 l/m 18,4 km/h (3 Bft) SW 0,00 h 0,000 mm 0,0 UV-I 0 W/m 16,5 C 17,6 C 28,4 km/h (4 Bft) 96,61 %
25.08.2017 00:00 19,6 C 22,8 C 75 % 1019,3 hPa 0,0 l/m 16,5 km/h (3 Bft) W-SW 0,00 h 0,000 mm 0,0 UV-I 0 W/m 15,1 C 16,6 C 24,5 km/h (4 Bft) 98,24 %
25.08.2017 01:00 18,5 C 22,8 C 83 % 1018,5 hPa 0,0 l/m 7,1 km/h (2 Bft) S 0,00 h 0,051 mm 0,0 UV-I 0 W/m 15,5 C 17,9 C 12,6 km/h (3 Bft) 98,23 %
25.08.2017 02:00 17,9 C 22,7 C 85 % 1017,1 hPa 0,0 l/m 3,7 km/h (1 Bft) N-NO 0,00 h 0,025 mm 0,0 UV-I 0 W/m 15,3 C 17,8 C 6,8 km/h (2 Bft) 98,95 %
25.08.2017 03:00 17,3 C 22,2 C 87 % 1017,5 hPa 0,0 l/m 2,6 km/h (1 Bft) W-NW 0,00 h 0,000 mm 0,0 UV-I 0 W/m 15,2 C 17,3 C 4,4 km/h (1 Bft) 96,03 %
25.08.2017 04:00 16,4 C 22,2 C 90 % 1017,5 hPa 0,0 l/m 1,9 km/h (1 Bft) S-SW 0,00 h 0,000 mm 0,0 UV-I 0 W/m 14,8 C 16,4 C 4,3 km/h (1 Bft) 98,62 %
25.08.2017 05:00 15,7 C 22,2 C 92 % 1017,6 hPa 0,0 l/m 2,3 km/h (1 Bft) S-SW 0,00 h 0,000 mm 0,0 UV-I 0 W/m 14,4 C 15,7 C 5,0 km/h (1 Bft) 97,74 %
25.08.2017 06:00 15,7 C 22,2 C 92 % 1017,9 hPa 0,0 l/m 4,2 km/h (1 Bft) S-SW 0,03 h 0,000 mm 0,0 UV-I 15 W/m 14,4 C 15,7 C 6,9 km/h (2 Bft) 98,94 %
25.08.2017 07:00 16,1 C 22,2 C 92 % 1018,2 hPa 0,0 l/m 2,5 km/h (1 Bft) SW 0,43 h 0,026 mm 0,0 UV-I 116 W/m 14,9 C 16,1 C 4,2 km/h (1 Bft) 95,58 %
25.08.2017 08:00 18,3 C 22,2 C 86 % 1018,4 hPa 0,0 l/m 2,9 km/h (1 Bft) SW 1,00 h 0,076 mm 0,8 UV-I 323 W/m 16,0 C 18,3 C 5,2 km/h (1 Bft) 99,15 %
25.08.2017 09:00 20,4 C 22,2 C 78 % 1018,6 hPa 0,0 l/m 1,3 km/h (1 Bft) S-SO 1,00 h 0,178 mm 1,8 UV-I 454 W/m 16,5 C 20,4 C 3,7 km/h (1 Bft) 97,65 %
25.08.2017 10:00 22,0 C 22,2 C 72 % 1018,5 hPa 0,0 l/m 1,4 km/h (1 Bft) N-NO 1,00 h 0,279 mm 3,0 UV-I 603 W/m 16,7 C 22,0 C 3,6 km/h (1 Bft) 98,12 %
25.08.2017 11:00 23,5 C 22,7 C 68 % 1018,3 hPa 0,0 l/m 2,6 km/h (1 Bft) NO 1,00 h 0,356 mm 4,2 UV-I 691 W/m 17,1 C 23,5 C 5,4 km/h (1 Bft) 96,66 %
25.08.2017 12:00 24,6 C 22,8 C 63 % 1017,9 hPa 0,0 l/m 3,1 km/h (1 Bft) NO 1,00 h 0,431 mm 4,8 UV-I 743 W/m 17,2 C 24,6 C 5,9 km/h (2 Bft) 99,45 %
25.08.2017 13:00 25,8 C 23,3 C 59 % 1017,5 hPa 0,0 l/m 3,1 km/h (1 Bft) NO 1,00 h 0,483 mm 4,9 UV-I 750 W/m 17,2 C 25,8 C 6,3 km/h (2 Bft) 97,71 %
25.08.2017 14:00 26,9 C 23,5 C 53 % 1017,0 hPa 0,0 l/m 2,6 km/h (1 Bft) O-NO 1,00 h 0,483 mm 4,2 UV-I 700 W/m 16,6 C 26,9 C 5,6 km/h (1 Bft) 96,65 %
25.08.2017 15:00 27,7 C 23,9 C 49 % 1016,5 hPa 0,0 l/m 1,7 km/h (1 Bft) SO 1,00 h 0,457 mm 3,2 UV-I 611 W/m 16,1 C 27,7 C 4,3 km/h (1 Bft) 98,28 %
25.08.2017 16:00 28,2 C 23,9 C 47 % 1016,1 hPa 0,0 l/m 1,6 km/h (1 Bft) S-SO 1,00 h 0,406 mm 1,9 UV-I 469 W/m 15,8 C 28,2 C 4,1 km/h (1 Bft) 97,65 %
25.08.2017 17:00 28,0 C 24,3 C 48 % 1015,8 hPa 0,0 l/m 1,2 km/h (1 Bft) O-NO 1,00 h 0,330 mm 0,9 UV-I 310 W/m 16,1 C 28,0 C 3,4 km/h (1 Bft) 97,25 %
25.08.2017 18:00 27,4 C 24,4 C 54 % 1015,6 hPa 0,0 l/m 3,1 km/h (1 Bft) O-NO 0,80 h 0,229 mm 0,4 UV-I 147 W/m 17,2 C 27,4 C 5,3 km/h (1 Bft) 97,59 %
25.08.2017 19:00 25,0 C 24,2 C 67 % 1015,5 hPa 0,0 l/m 3,6 km/h (1 Bft) O-NO 0,20 h 0,127 mm 0,0 UV-I 36 W/m 18,4 C 25,0 C 5,3 km/h (1 Bft) 99,21 %
25.08.2017 20:00 22,3 C 23,9 C 75 % 1015,6 hPa 0,0 l/m 2,6 km/h (1 Bft) O 0,00 h 0,051 mm 0,0 UV-I 5 W/m 17,6 C 22,3 C 4,6 km/h (1 Bft) 96,80 %
25.08.2017 21:00 20,7 C 23,9 C 80 % 1015,7 hPa 0,0 l/m 3,1 km/h (1 Bft) SO 0,00 h 0,025 mm 0,0 UV-I 0 W/m 17,2 C 20,7 C 5,4 km/h (1 Bft) 97,94 %
25.08.2017 22:00 19,6 C 23,9 C 86 % 1015,6 hPa 0,0 l/m 0,7 km/h (0 Bft) SO 0,00 h 0,026 mm 0,0 UV-I 0 W/m 17,2 C 19,6 C 1,8 km/h (1 Bft) 97,68 %
25.08.2017 23:00 18,5 C 23,9 C 89 % 1015,5 hPa 0,0 l/m 0,1 km/h (0 Bft) SO 0,00 h 0,000 mm 0,0 UV-I 0 W/m 16,7 C 18,5 C 0,4 km/h (0 Bft) 99,09 %
26.08.2017 00:00 17,7 C 23,9 C 92 % 1015,4 hPa 0,0 l/m 1,4 km/h (1 Bft) SO 0,00 h 0,000 mm 0,0 UV-I 0 W/m 16,3 C 17,7 C 2,7 km/h (1 Bft) 95,87 %
26.08.2017 01:00 17,3 C 23,7 C 93 % 1015,1 hPa 0,0 l/m 0,6 km/h (0 Bft) S 0,00 h 0,000 mm 0,0 UV-I 0 W/m 16,1 C 17,3 C 2,0 km/h (1 Bft) 98,21 %
26.08.2017 02:00 16,8 C 23,3 C 94 % 1015,1 hPa 0,0 l/m 1,1 km/h (1 Bft) SW 0,00 h 0,000 mm 0,0 UV-I 0 W/m 15,8 C 16,8 C 2,1 km/h (1 Bft) 97,77 %
26.08.2017 03:00 16,4 C 23,3 C 95 % 1015,1 hPa 0,0 l/m 1,4 km/h (1 Bft) S 0,00 h 0,000 mm 0,0 UV-I 0 W/m 15,5 C 16,4 C 2,8 km/h (1 Bft) 98,65 %
26.08.2017 04:00 16,0 C 23,3 C 95 % 1015,3 hPa 0,0 l/m 0,4 km/h (0 Bft) S 0,00 h 0,000 mm 0,0 UV-I 0 W/m 15,2 C 16,0 C 1,1 km/h (0 Bft) 96,23 %
26.08.2017 05:00 16,1 C 23,3 C 95 % 1015,6 hPa 0,0 l/m 1,8 km/h (1 Bft) S 0,00 h 0,000 mm 0,0 UV-I 5 W/m 15,3 C 16,1 C 3,6 km/h (1 Bft) 99,35 %
26.08.2017 06:00 16,8 C 23,3 C 94 % 1016,2 hPa 0,0 l/m 3,1 km/h (1 Bft) S-SW 0,00 h 0,000 mm 0,0 UV-I 10 W/m 15,9 C 16,7 C 5,6 km/h (1 Bft) 97,72 %
26.08.2017 07:00 17,4 C 23,3 C 94 % 1016,6 hPa 0,0 l/m 3,2 km/h (1 Bft) NO 0,00 h 0,000 mm 0,0 UV-I 43 W/m 16,3 C 17,3 C 5,4 km/h (1 Bft) 97,95 %
26.08.2017 08:00 18,7 C 23,3 C 92 % 1016,6 hPa 0,0 l/m 2,2 km/h (1 Bft) NO 0,63 h 0,025 mm 0,7 UV-I 250 W/m 17,4 C 18,7 C 4,4 km/h (1 Bft) 96,84 %
26.08.2017 09:00 20,8 C 23,3 C 84 % 1016,5 hPa 0,0 l/m 3,7 km/h (1 Bft) O-SO 0,90 h 0,153 mm 1,7 UV-I 439 W/m 18,0 C 20,8 C 6,8 km/h (2 Bft) 99,51 %
26.08.2017 10:00 22,7 C 23,3 C 77 % 1016,4 hPa 0,0 l/m 2,4 km/h (1 Bft) S-SO 0,80 h 0,254 mm 2,8 UV-I 518 W/m 18,5 C 22,7 C 5,2 km/h (1 Bft) 98,30 %
26.08.2017 11:00 24,9 C 23,5 C 70 % 1016,2 hPa 0,0 l/m 2,7 km/h (1 Bft) NO 1,00 h 0,330 mm 4,0 UV-I 683 W/m 19,1 C 24,9 C 5,4 km/h (1 Bft) 97,58 %
26.08.2017 12:00 26,5 C 23,9 C 61 % 1015,8 hPa 0,0 l/m 2,3 km/h (1 Bft) W-SW 1,00 h 0,432 mm 4,6 UV-I 746 W/m 18,4 C 26,5 C 4,7 km/h (1 Bft) 97,83 %
26.08.2017 13:00 28,1 C 24,2 C 55 % 1015,4 hPa 0,0 l/m 3,3 km/h (1 Bft) SW 1,00 h 0,482 mm 4,6 UV-I 743 W/m 18,2 C 28,1 C 6,6 km/h (2 Bft) 98,74 %
26.08.2017 14:00 29,1 C 24,5 C 52 % 1014,9 hPa 0,0 l/m 2,4 km/h (1 Bft) S 1,00 h 0,508 mm 4,0 UV-I 685 W/m 18,3 C 29,1 C 5,5 km/h (1 Bft) 96,01 %
26.08.2017 15:00 29,5 C 25,0 C 50 % 1014,3 hPa 0,0 l/m 2,7 km/h (1 Bft) W-SW 1,00 h 0,483 mm 3,0 UV-I 594 W/m 17,9 C 29,5 C 6,3 km/h (2 Bft) 97,95 %
26.08.2017 16:00 29,9 C 25,0 C 49 % 1013,9 hPa 0,0 l/m 1,8 km/h (1 Bft) W 1,00 h 0,406 mm 1,9 UV-I 458 W/m 17,9 C 29,9 C 4,4 km/h (1 Bft) 98,42 %
26.08.2017 17:00 29,8 C 25,0 C 51 % 1013,4 hPa 0,0 l/m 2,0 km/h (1 Bft) NO 1,00 h 0,331 mm 0,9 UV-I 297 W/m 18,4 C 29,8 C 4,6 km/h (1 Bft) 96,61 %
26.08.2017 18:00 28,9 C 25,0 C 55 % 1013,1 hPa 0,0 l/m 4,4 km/h (1 Bft) O-SO 0,93 h 0,228 mm 0,4 UV-I 145 W/m 18,9 C 28,9 C 6,7 km/h (2 Bft) 98,73 %
26.08.2017 19:00 26,4 C 25,0 C 66 % 1013,0 hPa 0,0 l/m 4,4 km/h (1 Bft) O 0,07 h 0,127 mm 0,0 UV-I 31 W/m 19,4 C 26,4 C 7,0 km/h (2 Bft) 98,02 %
26.08.2017 20:00 23,8 C 25,0 C 75 % 1013,2 hPa 0,0 l/m 1,2 km/h (1 Bft) O 0,00 h 0,051 mm 0,0 UV-I 3 W/m 19,2 C 23,8 C 2,6 km/h (1 Bft) 96,48 %
26.08.2017 21:00 23,7 C 25,0 C 76 % 1013,8 hPa 0,0 l/m 4,7 km/h (1 Bft) SW 0,00 h 0,025 mm 0,0 UV-I 0 W/m 19,2 C 23,6 C 7,9 km/h (2 Bft) 97,96 %
26.08.2017 22:00 23,4 C 25,0 C 72 % 1014,3 hPa 0,0 l/m 7,8 km/h (2 Bft) S-SW 0,00 h 0,026 mm 0,0 UV-I 0 W/m 18,0 C 23,0 C 12,6 km/h (3 Bft) 98,35 %
26.08.2017 23:00 23,3 C 25,0 C 59 % 1014,5 hPa 0,0 l/m 11,0 km/h (2 Bft) SW 0,00 h 0,051 mm 0,0 UV-I 0 W/m 14,9 C 22,1 C 17,8 km/h (3 Bft) 98,81 %
27.08.2017 00:00 22,8 C 24,4 C 58 % 1014,1 hPa 0,0 l/m 6,0 km/h (2 Bft) S 0,00 h 0,000 mm 0,0 UV-I 0 W/m 14,0 C 22,5 C 10,3 km/h (2 Bft) 91,95 %
27.08.2017 01:00 20,9 C 24,4 C 67 % 1014,1 hPa 0,0 l/m 1,5 km/h (1 Bft) W 0,00 h 0,051 mm 0,0 UV-I 0 W/m 14,5 C 20,9 C 3,5 km/h (1 Bft) 98,01 %
27.08.2017 02:00 19,0 C 24,4 C 76 % 1014,0 hPa 0,0 l/m 2,0 km/h (1 Bft) S-SO 0,00 h 0,025 mm 0,0 UV-I 0 W/m 14,7 C 19,0 C 3,3 km/h (1 Bft) 97,95 %
27.08.2017 03:00 18,3 C 24,4 C 80 % 1014,0 hPa 0,0 l/m 3,4 km/h (1 Bft) SW 0,00 h 0,026 mm 0,0 UV-I 0 W/m 14,7 C 18,3 C 5,8 km/h (2 Bft) 97,85 %
27.08.2017 04:00 17,7 C 24,0 C 82 % 1014,1 hPa 0,0 l/m 3,8 km/h (1 Bft) S 0,00 h 0,025 mm 0,0 UV-I 0 W/m 14,6 C 17,7 C 6,3 km/h (2 Bft) 96,23 %
27.08.2017 05:00 17,3 C 23,9 C 83 % 1014,0 hPa 0,0 l/m 4,2 km/h (1 Bft) S 0,00 h 0,025 mm 0,0 UV-I 1 W/m 14,5 C 17,3 C 6,8 km/h (2 Bft) 98,05 %
27.08.2017 06:00 17,3 C 23,9 C 84 % 1014,4 hPa 0,0 l/m 3,2 km/h (1 Bft) SW 0,30 h 0,026 mm 0,0 UV-I 22 W/m 14,6 C 17,3 C 5,2 km/h (1 Bft) 98,66 %
27.08.2017 07:00 17,8 C 23,9 C 83 % 1014,6 hPa 0,0 l/m 4,2 km/h (1 Bft) S-SW 0,57 h 0,025 mm 0,0 UV-I 113 W/m 14,9 C 17,8 C 6,9 km/h (2 Bft) 96,38 %
27.08.2017 08:00 20,0 C 23,9 C 77 % 1014,7 hPa 0,0 l/m 4,7 km/h (1 Bft) SW 1,00 h 0,076 mm 0,8 UV-I 301 W/m 15,8 C 20,0 C 7,4 km/h (2 Bft) 97,25 %
27.08.2017 09:00 22,3 C 23,9 C 68 % 1014,9 hPa 0,0 l/m 3,0 km/h (1 Bft) S-SW 1,00 h 0,204 mm 1,7 UV-I 452 W/m 16,0 C 22,3 C 5,4 km/h (1 Bft) 98,94 %
27.08.2017 10:00 23,8 C 23,9 C 62 % 1014,9 hPa 0,0 l/m 2,3 km/h (1 Bft) S-SW 1,00 h 0,279 mm 2,7 UV-I 570 W/m 16,1 C 23,8 C 4,9 km/h (1 Bft) 97,87 %
27.08.2017 11:00 25,2 C 24,3 C 58 % 1014,7 hPa 0,0 l/m 3,0 km/h (1 Bft) SW 1,00 h 0,356 mm 3,8 UV-I 665 W/m 16,3 C 25,2 C 6,3 km/h (2 Bft) 96,94 %
27.08.2017 12:00 26,6 C 24,4 C 53 % 1014,5 hPa 0,0 l/m 4,1 km/h (1 Bft) W-SW 1,00 h 0,431 mm 4,2 UV-I 705 W/m 16,3 C 26,6 C 8,1 km/h (2 Bft) 96,93 %
27.08.2017 13:00 27,2 C 25,0 C 54 % 1014,3 hPa 0,0 l/m 4,5 km/h (1 Bft) W-SW 0,63 h 0,483 mm 3,7 UV-I 573 W/m 16,9 C 27,2 C 8,8 km/h (2 Bft) 99,03 %
27.08.2017 14:00 28,3 C 25,0 C 53 % 1013,8 hPa 0,0 l/m 4,0 km/h (1 Bft) SW 0,93 h 0,406 mm 3,6 UV-I 638 W/m 17,8 C 28,2 C 8,0 km/h (2 Bft) 97,38 %
27.08.2017 15:00 28,2 C 25,0 C 54 % 1013,5 hPa 0,0 l/m 5,9 km/h (2 Bft) SW 0,37 h 0,432 mm 1,9 UV-I 329 W/m 17,9 C 28,1 C 11,9 km/h (2 Bft) 98,21 %
27.08.2017 16:00 26,5 C 25,0 C 58 % 1013,8 hPa 0,0 l/m 7,9 km/h (2 Bft) W-SW 0,10 h 0,254 mm 1,0 UV-I 234 W/m 17,5 C 26,2 C 16,7 km/h (3 Bft) 98,17 %
27.08.2017 17:00 25,0 C 25,0 C 56 % 1014,1 hPa 0,0 l/m 8,9 km/h (2 Bft) SW 0,33 h 0,203 mm 0,5 UV-I 187 W/m 15,4 C 24,4 C 16,3 km/h (3 Bft) 98,74 %
27.08.2017 18:00 24,4 C 25,0 C 60 % 1014,2 hPa 0,0 l/m 8,2 km/h (2 Bft) W-SW 0,10 h 0,178 mm 0,3 UV-I 98 W/m 16,1 C 23,9 C 13,5 km/h (3 Bft) 95,51 %
27.08.2017 19:00 22,9 C 25,0 C 64 % 1014,5 hPa 0,0 l/m 4,2 km/h (1 Bft) W-SW 0,13 h 0,127 mm 0,0 UV-I 29 W/m 15,7 C 22,9 C 7,1 km/h (2 Bft) 98,74 %
27.08.2017 20:00 21,3 C 25,0 C 71 % 1015,2 hPa 0,0 l/m 3,5 km/h (1 Bft) SW 0,00 h 0,051 mm 0,0 UV-I 0 W/m 15,8 C 21,3 C 5,3 km/h (1 Bft) 97,74 %
27.08.2017 21:00 20,8 C 25,0 C 74 % 1015,5 hPa 0,0 l/m 5,2 km/h (1 Bft) SW 0,00 h 0,025 mm 0,0 UV-I 0 W/m 16,0 C 20,7 C 8,2 km/h (2 Bft) 99,49 %
27.08.2017 22:00 20,6 C 25,0 C 76 % 1015,7 hPa 0,0 l/m 5,2 km/h (1 Bft) W-SW 0,00 h 0,026 mm 0,0 UV-I 0 W/m 16,1 C 20,4 C 8,5 km/h (2 Bft) 96,28 %
27.08.2017 23:00 19,3 C 24,5 C 85 % 1015,9 hPa 0,6 l/m 2,4 km/h (1 Bft) S 0,00 h 0,025 mm 0,0 UV-I 0 W/m 16,7 C 19,3 C 4,9 km/h (1 Bft) 99,09 %
Min-Datum _ 22.08.17 22.08.17 22.08.17 26.08.17 - 21.08.17 - - - - - 22.08.17 22.08.17 21.08.17 23.08.17
_ Min-Zeit 06:32 04:26 15:06 18:54 - 02:46 - - - - - 06:32 06:32 02:46 00:02
Minimum _ 8,2 C 20,6 C 42 % 1012,8 hPa - 0,0 km/h (0 Bft) - - - - - 7,3 C 8,2 C 0,0 km/h (0 Bft) 12,50 %
Max-Datum _ 26.08.17 26.08.17 24.08.17 21.08.17 27.08.17 24.08.17 - 22.08.17 26.08.17 23.08.17 22.08.17 26.08.17 26.08.17 24.08.17 21.08.17
_ Max-Zeit 17:10 14:50 07:04 08:24 23:06 23:36 - 12:30 14:00 13:12 13:28 19:02 17:10 23:40 00:02
Maximum _ 30,2 C 25,0 C 96 % 1022,8 hPa 0,6 l/m 29,2 km/h
SW (5 Bft)
- 0,07 h 0,508 mm 5,3 UV-I 901 W/m 20,3 C 30,2 C 49,9 km/h
SW (6 Bft)
100,00 %
Durchschnitt _ 18,8 C 22,6 C 74 % 1017,5 hPa #0,6 l/m 3,6 km/h (1 Bft) S-SW #75:50 h #26,442 mm 2,5 UV-I 371 W/m 13,6 C 18,7 C 6,6 km/h (2 Bft) 97,95 %